Time;durP1;ratioP1;P1;durP2;ratioP2;P2;SDS_P1;SDS_P2;PMS_P1;PMS_P2;Temp;Humidity;BMP_temperature;BMP_pressure;BME280_temperature;BME280_humidity;BME280_pressure;Samples;Min_cycle;Max_cycle;Signal;HPM_P1;HPM_P2
2022/10/27 00:00:15;;;;;;;1.17;1.00;;;20.90;71.50;;;;;;5013709;28;20131;-12
2022/10/27 00:02:41;;;;;;;1.05;0.90;;;20.90;71.40;;;;;;5013503;28;20052;-12
2022/10/27 00:05:07;;;;;;;1.02;0.93;;;20.90;71.40;;;;;;5013497;28;20038;-13
2022/10/27 00:07:35;;;;;;;0.73;0.73;;;20.90;71.40;;;;;;5013405;28;20075;-12
2022/10/27 00:10:01;;;;;;;0.70;0.70;;;20.90;71.40;;;;;;5016466;28;20053;-18
2022/10/27 00:12:29;;;;;;;1.13;1.00;;;20.90;71.50;;;;;;5011692;28;20121;-12
2022/10/27 00:14:54;;;;;;;1.00;1.00;;;20.90;71.40;;;;;;5013476;28;20047;-12
2022/10/27 00:17:20;;;;;;;0.90;0.90;;;20.90;71.40;;;;;;5014216;28;21104;-12
2022/10/27 00:19:45;;;;;;;0.80;0.80;;;20.90;71.40;;;;;;5013282;28;20038;-12
2022/10/27 00:22:11;;;;;;;0.55;0.55;;;20.90;71.40;;;;;;5012498;28;20041;-13
2022/10/27 00:24:37;;;;;;;0.68;0.60;;;21.00;71.20;;;;;;5011183;28;20049;-12
2022/10/27 00:27:02;;;;;;;0.70;0.70;;;20.90;71.30;;;;;;5013137;28;20049;-12
2022/10/27 00:29:28;;;;;;;0.63;0.63;;;20.90;71.30;;;;;;5014155;28;20060;-12
2022/10/27 00:31:53;;;;;;;0.63;0.63;;;20.90;71.30;;;;;;5019402;28;20046;-12
2022/10/27 00:34:19;;;;;;;0.70;0.70;;;21.00;71.80;;;;;;5015278;28;20037;-12
2022/10/27 00:36:44;;;;;;;0.70;0.70;;;21.00;71.10;;;;;;5014320;28;20041;-12
2022/10/27 00:39:11;;;;;;;0.90;0.90;;;20.90;71.00;;;;;;5010623;28;20057;-12
2022/10/27 00:41:38;;;;;;;0.60;0.60;;;20.90;71.00;;;;;;5013052;28;20049;-12
2022/10/27 00:44:30;;;;;;;0.90;0.60;;;20.90;71.00;;;;;;5017616;28;20021;-12
2022/10/27 00:46:56;;;;;;;0.80;0.80;;;21.00;71.00;;;;;;5011119;28;20181;-12
2022/10/27 00:49:23;;;;;;;0.90;0.90;;;20.90;71.00;;;;;;5013690;28;20113;-13
2022/10/27 00:52:01;;;;;;;0.60;0.60;;;20.90;71.00;;;;;;5012583;28;20042;-11
2022/10/27 00:54:27;;;;;;;0.60;0.60;;;20.90;71.30;;;;;;5014960;28;20099;-12
2022/10/27 00:56:53;;;;;;;0.60;0.60;;;20.80;71.20;;;;;;5012918;28;20041;-12
2022/10/27 00:59:19;;;;;;;0.80;0.80;;;20.90;71.20;;;;;;5015129;28;20060;-12
2022/10/27 01:01:44;;;;;;;0.80;0.80;;;20.80;71.20;;;;;;5010099;28;20058;-12
2022/10/27 01:04:10;;;;;;;0.60;0.50;;;20.90;71.20;;;;;;5004279;28;20038;-12
2022/10/27 01:06:36;;;;;;;0.77;0.77;;;20.80;71.30;;;;;;5022975;28;20058;-13
2022/10/27 01:09:02;;;;;;;1.58;0.55;;;20.80;71.40;;;;;;5001337;28;20511;-12
2022/10/27 01:11:27;;;;;;;0.60;0.60;;;20.80;71.40;;;;;;4991772;28;20059;-12
2022/10/27 01:13:53;;;;;;;0.40;0.40;;;20.80;71.30;;;;;;4991966;28;20100;-12
2022/10/27 01:16:39;;;;;;;0.60;0.60;;;20.80;71.20;;;;;;4992060;28;20553;-12
2022/10/27 01:19:29;;;;;;;0.60;0.60;;;20.80;71.30;;;;;;4994809;28;20050;-12
2022/10/27 01:22:01;;;;;;;0.57;0.57;;;20.90;71.30;;;;;;4994609;28;20605;-12
2022/10/27 01:24:46;;;;;;;0.98;0.93;;;20.80;71.40;;;;;;4991511;28;20042;-11
2022/10/27 01:27:30;;;;;;;0.55;0.55;;;20.70;71.60;;;;;;4992239;28;20622;-15
2022/10/27 01:30:04;;;;;;;0.68;0.60;;;20.70;71.80;;;;;;5004041;28;20038;-12
2022/10/27 01:32:51;;;;;;;0.82;0.70;;;20.70;71.90;;;;;;4990499;28;20037;-16
2022/10/27 01:35:50;;;;;;;0.50;0.50;;;20.70;71.80;;;;;;4991006;28;20042;-12
2022/10/27 01:38:16;;;;;;;0.40;0.40;;;20.70;71.60;;;;;;4992248;28;20050;-12
2022/10/27 01:41:00;;;;;;;0.65;0.65;;;20.80;71.60;;;;;;4995903;28;20054;-12
2022/10/27 01:43:27;;;;;;;0.63;0.47;;;20.70;71.70;;;;;;4997069;28;20092;-12
2022/10/27 01:45:53;;;;;;;0.57;0.57;;;20.70;71.50;;;;;;4993663;28;20092;-13
2022/10/27 01:48:18;;;;;;;0.70;0.60;;;20.70;72.30;;;;;;4992819;28;20176;-14
2022/10/27 01:50:44;;;;;;;0.80;0.80;;;20.70;71.70;;;;;;4989429;28;20540;-12
2022/10/27 01:53:10;;;;;;;0.80;0.80;;;20.70;71.80;;;;;;5011698;28;20049;-19
2022/10/27 01:56:02;;;;;;;0.85;0.60;;;20.70;71.50;;;;;;4997411;28;20058;-20
2022/10/27 01:58:37;;;;;;;0.50;0.50;;;20.70;71.70;;;;;;5006420;28;20038;-12
2022/10/27 02:01:27;;;;;;;2.47;0.80;;;20.60;71.80;;;;;;5008190;28;20041;-12
2022/10/27 02:04:00;;;;;;;0.52;0.52;;;20.70;71.50;;;;;;4997222;28;20046;-12
2022/10/27 02:06:31;;;;;;;0.50;0.50;;;20.70;71.80;;;;;;4995710;28;20070;-12
2022/10/27 02:09:20;;;;;;;0.70;0.70;;;20.60;71.90;;;;;;4999698;28;20035;-12
2022/10/27 02:11:46;;;;;;;0.98;0.88;;;20.60;71.90;;;;;;5009778;28;20133;-12
2022/10/27 02:14:12;;;;;;;0.60;0.60;;;20.60;71.70;;;;;;5013674;28;20075;-12
2022/10/27 02:16:46;;;;;;;0.70;0.60;;;20.60;71.80;;;;;;5010373;28;20050;-12
2022/10/27 02:19:25;;;;;;;0.60;0.50;;;20.60;71.50;;;;;;4996710;28;20570;-13
2022/10/27 02:21:53;;;;;;;0.63;0.63;;;20.70;71.60;;;;;;4996338;28;20061;-12
2022/10/27 02:24:18;;;;;;;0.77;0.50;;;20.60;71.70;;;;;;5000408;28;20401;-12
2022/10/27 02:26:46;;;;;;;0.60;0.60;;;20.60;72.50;;;;;;5013918;28;20037;-12
2022/10/27 02:29:21;;;;;;;0.60;0.60;;;20.60;71.90;;;;;;5019753;28;20044;-22
2022/10/27 02:31:48;;;;;;;0.80;0.50;;;20.60;72.50;;;;;;4982853;28;20125;-13
2022/10/27 02:34:15;;;;;;;0.70;0.70;;;20.60;71.70;;;;;;5014462;28;20228;-13
2022/10/27 02:36:40;;;;;;;0.70;0.70;;;20.70;71.60;;;;;;5007880;28;20129;-12
2022/10/27 02:39:06;;;;;;;0.65;0.65;;;20.70;71.60;;;;;;4996549;28;20117;-12
2022/10/27 02:41:31;;;;;;;0.40;0.40;;;20.60;71.70;;;;;;4995600;28;20041;-12
2022/10/27 02:43:57;;;;;;;0.50;0.50;;;20.60;71.90;;;;;;5009066;28;20049;-12
2022/10/27 02:46:22;;;;;;;0.50;0.50;;;20.60;72.10;;;;;;5010165;28;20038;-12
2022/10/27 02:48:48;;;;;;;0.50;0.50;;;20.60;71.70;;;;;;5010482;28;20041;-12
2022/10/27 02:51:14;;;;;;;0.55;0.55;;;20.60;71.70;;;;;;5002183;28;20027;-13
2022/10/27 02:53:39;;;;;;;0.60;0.50;;;20.60;71.80;;;;;;5015617;28;20046;-13
2022/10/27 02:56:06;;;;;;;0.30;0.30;;;20.60;71.90;;;;;;5012554;28;20061;-12
2022/10/27 02:58:31;;;;;;;0.50;0.50;;;20.60;72.00;;;;;;4998123;28;20141;-12
2022/10/27 03:00:57;;;;;;;0.60;0.50;;;20.70;71.60;;;;;;5025137;28;20442;-13
2022/10/27 03:03:23;;;;;;;0.93;0.50;;;20.70;71.90;;;;;;5016553;28;20061;-13
2022/10/27 03:05:48;;;;;;;0.55;0.55;;;20.60;71.50;;;;;;5011516;28;20040;-12
2022/10/27 03:08:14;;;;;;;0.75;0.50;;;20.60;71.70;;;;;;5017573;28;20050;-12
2022/10/27 03:10:40;;;;;;;0.50;0.50;;;20.60;71.80;;;;;;5011128;28;20056;-12
2022/10/27 03:13:05;;;;;;;0.60;0.60;;;20.70;71.50;;;;;;5011489;28;20037;-13
2022/10/27 03:15:31;;;;;;;0.63;0.63;;;20.70;71.50;;;;;;5005618;28;20046;-13
2022/10/27 03:17:56;;;;;;;0.50;0.50;;;20.60;71.90;;;;;;5008692;28;20088;-13
2022/10/27 03:20:22;;;;;;;0.60;0.60;;;20.60;71.90;;;;;;5005344;28;20049;-12
2022/10/27 03:22:47;;;;;;;0.40;0.40;;;20.60;72.10;;;;;;5004512;28;21134;-12
2022/10/27 03:25:14;;;;;;;0.65;0.50;;;20.50;72.20;;;;;;4994237;28;20054;-12
2022/10/27 03:27:41;;;;;;;0.40;0.40;;;20.60;72.10;;;;;;4992489;28;20053;-12
2022/10/27 03:30:07;;;;;;;1.60;0.40;;;20.60;72.00;;;;;;4995935;28;20092;-12
2022/10/27 03:32:33;;;;;;;0.50;0.50;;;20.60;72.30;;;;;;4994998;28;20039;-13
2022/10/27 03:34:58;;;;;;;0.55;0.55;;;20.50;72.20;;;;;;4998083;28;20830;-12
2022/10/27 03:37:24;;;;;;;0.50;0.50;;;20.50;72.00;;;;;;5008229;28;20046;-12
2022/10/27 03:39:49;;;;;;;0.60;0.50;;;20.50;72.20;;;;;;5010779;28;20132;-12
2022/10/27 03:42:15;;;;;;;0.80;0.65;;;20.50;72.30;;;;;;5004685;28;20030;-12
2022/10/27 03:44:41;;;;;;;0.55;0.50;;;20.50;72.00;;;;;;4991673;28;20507;-12
2022/10/27 03:47:06;;;;;;;0.52;0.50;;;20.60;72.70;;;;;;4993762;28;20149;-13
2022/10/27 03:49:32;;;;;;;1.02;0.47;;;20.50;72.70;;;;;;4992323;28;20046;-12
2022/10/27 03:51:57;;;;;;;0.60;0.60;;;20.60;71.70;;;;;;4996499;28;20046;-12
2022/10/27 03:54:23;;;;;;;0.40;0.40;;;20.60;71.80;;;;;;5007279;28;20076;-12
2022/10/27 03:56:48;;;;;;;0.60;0.60;;;20.50;71.80;;;;;;4994699;28;20129;-12
2022/10/27 03:59:14;;;;;;;0.57;0.57;;;20.60;71.50;;;;;;4998870;28;20061;-12
2022/10/27 04:01:39;;;;;;;0.50;0.50;;;20.60;71.70;;;;;;4991494;28;21140;-12
2022/10/27 04:04:05;;;;;;;0.30;0.30;;;20.50;72.00;;;;;;4997732;28;20054;-12
2022/10/27 04:06:31;;;;;;;0.95;0.52;;;20.50;72.10;;;;;;4995056;28;20455;-13
2022/10/27 04:08:56;;;;;;;0.40;0.40;;;20.50;72.00;;;;;;4994867;28;20081;-13
2022/10/27 04:11:22;;;;;;;0.40;0.40;;;20.60;71.80;;;;;;4995203;28;20046;-14
2022/10/27 04:13:47;;;;;;;0.45;0.45;;;20.60;71.70;;;;;;4997027;28;20042;-12
2022/10/27 04:16:13;;;;;;;0.38;0.38;;;20.60;71.80;;;;;;5008364;28;20038;-13
2022/10/27 04:18:38;;;;;;;0.40;0.40;;;20.50;71.80;;;;;;5007145;28;20112;-12
2022/10/27 04:21:05;;;;;;;1.60;0.50;;;20.60;71.60;;;;;;5011617;28;20045;-12
2022/10/27 04:23:30;;;;;;;0.65;0.60;;;20.50;71.90;;;;;;5010041;28;20410;-12
2022/10/27 04:25:56;;;;;;;0.50;0.38;;;20.60;71.90;;;;;;5002348;28;20048;-12
2022/10/27 04:28:21;;;;;;;0.50;0.50;;;20.50;71.80;;;;;;5014864;28;20046;-14
2022/10/27 04:30:47;;;;;;;0.60;0.47;;;20.50;71.80;;;;;;5025257;28;20045;-12
2022/10/27 04:33:13;;;;;;;0.50;0.40;;;20.50;71.90;;;;;;5008951;28;20121;-12
2022/10/27 04:35:38;;;;;;;0.40;0.40;;;20.50;71.70;;;;;;4996933;28;20542;-13
2022/10/27 04:38:04;;;;;;;1.02;0.52;;;20.50;71.80;;;;;;5011876;28;20052;-12
2022/10/27 04:40:29;;;;;;;0.50;0.50;;;20.50;71.70;;;;;;5010680;28;20525;-12
2022/10/27 04:42:55;;;;;;;0.40;0.40;;;20.60;71.50;;;;;;5008217;28;20041;-22
2022/10/27 04:45:21;;;;;;;0.50;0.38;;;20.60;71.50;;;;;;4995618;28;20745;-12
2022/10/27 04:47:46;;;;;;;0.40;0.40;;;20.60;71.60;;;;;;4994385;28;20061;-12
2022/10/27 04:50:13;;;;;;;0.60;0.52;;;20.60;72.40;;;;;;5002769;28;20484;-19
2022/10/27 04:52:38;;;;;;;1.85;0.60;;;20.50;71.70;;;;;;5007843;28;20046;-12
2022/10/27 04:55:04;;;;;;;0.40;0.40;;;20.50;71.70;;;;;;5005993;28;20044;-12
2022/10/27 04:57:30;;;;;;;0.40;0.40;;;20.50;71.70;;;;;;5011847;28;20041;-12
2022/10/27 04:59:56;;;;;;;0.43;0.43;;;20.50;72.60;;;;;;5006692;28;20961;-12
2022/10/27 05:02:21;;;;;;;0.40;0.40;;;20.50;71.90;;;;;;5012430;28;20045;-12
2022/10/27 05:04:47;;;;;;;0.40;0.40;;;20.50;71.70;;;;;;5006003;28;20096;-14
2022/10/27 05:07:12;;;;;;;0.40;0.40;;;20.50;72.10;;;;;;5002744;28;20046;-19
2022/10/27 05:09:38;;;;;;;0.65;0.30;;;20.50;72.00;;;;;;4996261;28;20555;-12
2022/10/27 05:12:04;;;;;;;1.25;0.40;;;20.60;72.00;;;;;;4995016;28;20038;-12
2022/10/27 05:14:29;;;;;;;0.50;0.50;;;20.50;71.70;;;;;;4995343;28;20046;-12
2022/10/27 05:16:55;;;;;;;0.60;0.60;;;20.50;71.70;;;;;;5014358;28;20077;-12
2022/10/27 05:19:20;;;;;;;0.50;0.50;;;20.50;72.10;;;;;;5012712;28;20046;-12
2022/10/27 05:21:46;;;;;;;0.40;0.30;;;20.50;72.00;;;;;;5011212;28;20056;-12
2022/10/27 05:24:11;;;;;;;0.45;0.35;;;20.50;72.50;;;;;;5010763;28;20038;-12
2022/10/27 05:26:37;;;;;;;0.57;0.52;;;20.50;71.80;;;;;;5003133;28;20268;-12
2022/10/27 05:29:02;;;;;;;0.50;0.50;;;20.50;71.80;;;;;;5001742;28;20046;-12
2022/10/27 05:31:28;;;;;;;0.35;0.35;;;20.50;71.80;;;;;;5013819;28;20038;-12
2022/10/27 05:33:54;;;;;;;0.47;0.47;;;20.50;72.00;;;;;;5015557;28;20379;-12
2022/10/27 05:36:19;;;;;;;0.30;0.30;;;20.50;72.30;;;;;;5008374;28;20111;-12
2022/10/27 05:38:45;;;;;;;0.60;0.50;;;20.60;71.90;;;;;;4652751;28;10000056;-12
2022/10/27 05:41:11;;;;;;;0.47;0.40;;;20.70;71.20;;;;;;5009670;28;20041;-12
2022/10/27 05:43:37;;;;;;;1.50;0.50;;;20.70;71.30;;;;;;5011014;28;20046;-12
2022/10/27 05:46:03;;;;;;;1.02;0.40;;;20.70;71.70;;;;;;5000115;28;20061;-12
2022/10/27 05:48:29;;;;;;;0.40;0.40;;;20.60;71.90;;;;;;5008339;28;20099;-12
2022/10/27 05:50:55;;;;;;;2.63;0.68;;;20.60;72.30;;;;;;5009419;28;20756;-12
2022/10/27 05:53:20;;;;;;;0.30;0.30;;;20.60;71.90;;;;;;5012373;28;20045;-12
2022/10/27 05:55:46;;;;;;;0.85;0.50;;;20.60;71.50;;;;;;5003972;28;20050;-12
2022/10/27 05:58:12;;;;;;;0.40;0.40;;;20.60;72.30;;;;;;5013255;28;20050;-13
2022/10/27 06:00:38;;;;;;;1.13;0.60;;;20.50;72.00;;;;;;5007065;28;20458;-12
2022/10/27 06:03:05;;;;;;;0.77;0.60;;;20.60;72.30;;;;;;5007957;28;20104;-17
2022/10/27 06:05:31;;;;;;;0.50;0.50;;;20.50;72.10;;;;;;5003637;28;20045;-13
2022/10/27 06:07:57;;;;;;;0.50;0.35;;;20.60;72.20;;;;;;5012247;28;20050;-13
2022/10/27 06:10:23;;;;;;;0.68;0.68;;;20.60;72.20;;;;;;5011883;28;20108;-12
2022/10/27 06:12:48;;;;;;;0.45;0.45;;;20.70;71.50;;;;;;5011804;28;20058;-12
2022/10/27 06:15:14;;;;;;;0.55;0.55;;;20.70;71.70;;;;;;5002084;28;20152;-12
2022/10/27 06:17:40;;;;;;;0.40;0.40;;;20.80;70.90;;;;;;4996981;28;20085;-13
2022/10/27 06:20:05;;;;;;;0.65;0.55;;;20.90;70.70;;;;;;5012898;28;20099;-12
2022/10/27 06:22:31;;;;;;;2.17;0.40;;;20.70;70.80;;;;;;5006564;28;20089;-12
2022/10/27 06:24:57;;;;;;;1.75;0.45;;;20.60;71.50;;;;;;5011752;28;20108;-12
2022/10/27 06:27:22;;;;;;;0.60;0.50;;;20.60;71.40;;;;;;5002337;28;20035;-13
2022/10/27 06:29:48;;;;;;;0.40;0.40;;;20.60;71.40;;;;;;5005203;28;20050;-12
2022/10/27 06:32:13;;;;;;;0.35;0.32;;;20.60;71.80;;;;;;5008992;28;20034;-12
2022/10/27 06:34:39;;;;;;;1.70;0.47;;;20.60;71.50;;;;;;5012281;28;20590;-13
2022/10/27 06:37:05;;;;;;;0.30;0.30;;;20.60;71.30;;;;;;5012403;28;20076;-12
2022/10/27 06:39:31;;;;;;;0.40;0.40;;;20.60;71.30;;;;;;4997672;28;20546;-14
2022/10/27 06:41:57;;;;;;;0.60;0.40;;;20.60;71.50;;;;;;5009787;28;20152;-12
2022/10/27 06:44:23;;;;;;;0.50;0.50;;;20.60;71.90;;;;;;5004753;28;20133;-13
2022/10/27 06:46:48;;;;;;;0.38;0.38;;;20.60;71.20;;;;;;5006849;28;20042;-12
2022/10/27 06:49:14;;;;;;;0.40;0.40;;;20.60;71.40;;;;;;5012167;28;20447;-12
2022/10/27 06:51:39;;;;;;;0.57;0.40;;;20.60;71.10;;;;;;5011853;28;20045;-12
2022/10/27 06:54:05;;;;;;;0.45;0.45;;;20.70;71.00;;;;;;5014909;28;20045;-12
2022/10/27 06:56:30;;;;;;;0.43;0.43;;;20.70;71.00;;;;;;5017078;28;20038;-13
2022/10/27 06:58:56;;;;;;;0.70;0.35;;;20.70;71.10;;;;;;5005382;28;20058;-12
2022/10/27 07:01:21;;;;;;;1.10;0.40;;;20.60;71.30;;;;;;4998910;28;20137;-12
2022/10/27 07:03:49;;;;;;;0.32;0.30;;;20.50;71.90;;;;;;5005964;28;20514;-12
2022/10/27 07:06:14;;;;;;;0.50;0.50;;;20.60;71.70;;;;;;5014144;28;20625;-12
2022/10/27 07:08:40;;;;;;;0.40;0.40;;;20.50;71.80;;;;;;5007531;28;20054;-12
2022/10/27 07:11:05;;;;;;;0.32;0.30;;;20.50;72.00;;;;;;5012076;28;20525;-12
2022/10/27 07:13:31;;;;;;;1.27;0.60;;;20.60;71.50;;;;;;5013361;28;20029;-13
2022/10/27 07:15:56;;;;;;;1.60;0.50;;;20.60;71.50;;;;;;5013750;28;20052;-12
2022/10/27 07:18:22;;;;;;;0.50;0.40;;;20.60;72.30;;;;;;5017638;28;20140;-13
2022/10/27 07:20:48;;;;;;;0.40;0.40;;;20.60;71.40;;;;;;5016349;28;20512;-12
2022/10/27 07:23:14;;;;;;;0.40;0.40;;;20.60;71.60;;;;;;5011720;28;20045;-12
2022/10/27 07:25:39;;;;;;;0.77;0.50;;;20.60;71.70;;;;;;5001342;28;20038;-13
2022/10/27 07:28:05;;;;;;;0.30;0.30;;;20.60;71.90;;;;;;5010174;28;20050;-13
2022/10/27 07:30:35;;;;;;;0.50;0.50;;;20.60;72.60;;;;;;4997693;28;20039;-12
2022/10/27 07:33:01;;;;;;;0.47;0.40;;;20.50;72.80;;;;;;4989707;28;20108;-13
2022/10/27 07:35:26;;;;;;;0.50;0.50;;;20.50;72.00;;;;;;4999324;28;20050;-12
2022/10/27 07:37:52;;;;;;;0.65;0.60;;;20.50;72.90;;;;;;5014958;28;20391;-12
2022/10/27 07:40:19;;;;;;;1.73;0.55;;;20.50;72.00;;;;;;4995963;28;20503;-12
2022/10/27 07:42:49;;;;;;;0.50;0.50;;;20.50;72.20;;;;;;4994016;28;20609;-13
2022/10/27 07:45:15;;;;;;;0.98;0.40;;;20.50;72.30;;;;;;4992891;28;20148;-12
2022/10/27 07:47:45;;;;;;;0.40;0.40;;;20.50;72.10;;;;;;4995541;28;20046;-12
2022/10/27 07:50:11;;;;;;;1.05;0.55;;;20.50;72.10;;;;;;4998099;28;20038;-12
2022/10/27 07:52:43;;;;;;;0.47;0.47;;;20.50;71.90;;;;;;5009464;28;20045;-12
2022/10/27 07:55:10;;;;;;;0.50;0.50;;;20.50;71.80;;;;;;4997698;28;20500;-13
2022/10/27 07:57:35;;;;;;;0.60;0.57;;;20.60;71.70;;;;;;4995568;28;20058;-12
2022/10/27 08:00:02;;;;;;;0.35;0.35;;;20.50;71.60;;;;;;4994062;28;20070;-12
2022/10/27 08:02:28;;;;;;;0.50;0.32;;;20.60;71.60;;;;;;4994190;28;20034;-12
2022/10/27 08:04:53;;;;;;;0.55;0.55;;;20.50;71.60;;;;;;4995581;28;20053;-15
2022/10/27 08:07:19;;;;;;;0.73;0.47;;;20.60;71.40;;;;;;5004842;28;20029;-14
2022/10/27 08:09:45;;;;;;;0.30;0.20;;;20.60;71.50;;;;;;5000190;28;20046;-12
2022/10/27 08:12:10;;;;;;;0.45;0.40;;;20.50;71.40;;;;;;5008094;28;20050;-13
2022/10/27 08:14:36;;;;;;;0.55;0.47;;;20.50;71.40;;;;;;4992456;28;20546;-14
2022/10/27 08:17:01;;;;;;;1.77;0.50;;;20.50;71.40;;;;;;5009895;28;20037;-13
2022/10/27 08:19:27;;;;;;;0.32;0.32;;;20.50;71.40;;;;;;5012615;28;20131;-13
2022/10/27 08:21:52;;;;;;;0.55;0.55;;;20.60;71.10;;;;;;5009665;28;20049;-12
2022/10/27 08:24:18;;;;;;;1.35;0.50;;;20.50;71.30;;;;;;5008415;28;20026;-12
2022/10/27 08:26:43;;;;;;;0.95;0.40;;;20.60;71.20;;;;;;5014513;28;20542;-12
2022/10/27 08:29:09;;;;;;;0.30;0.30;;;20.60;71.20;;;;;;5005689;28;20048;-12
2022/10/27 08:31:35;;;;;;;0.40;0.40;;;20.50;71.30;;;;;;5007343;28;20030;-13
2022/10/27 08:34:00;;;;;;;0.50;0.40;;;20.50;71.80;;;;;;5008390;28;20038;-12
2022/10/27 08:36:26;;;;;;;0.43;0.40;;;20.60;70.70;;;;;;5010023;28;20395;-13
2022/10/27 08:38:51;;;;;;;0.95;0.40;;;20.60;70.40;;;;;;5009137;28;20068;-12
2022/10/27 08:41:23;;;;;;;0.30;0.30;;;20.70;70.30;;;;;;5002757;28;20151;-12
2022/10/27 08:43:51;;;;;;;0.63;0.35;;;20.60;70.50;;;;;;4993266;28;20594;-12
2022/10/27 08:46:19;;;;;;;0.77;0.50;;;20.60;70.70;;;;;;4993078;28;20071;-13
2022/10/27 08:48:45;;;;;;;0.47;0.38;;;20.50;70.80;;;;;;4992839;28;20045;-12
2022/10/27 08:51:16;;;;;;;0.77;0.77;;;20.50;70.80;;;;;;4991074;28;20046;-13
2022/10/27 08:53:41;;;;;;;1.63;0.90;;;20.50;70.70;;;;;;4989998;28;20082;-13
2022/10/27 08:56:10;;;;;;;0.50;0.50;;;20.50;71.40;;;;;;5011189;28;20529;-12
2022/10/27 08:58:43;;;;;;;0.40;0.40;;;20.60;70.70;;;;;;4990651;28;20140;-13
2022/10/27 09:01:18;;;;;;;0.27;0.20;;;20.60;70.90;;;;;;4993070;28;20053;-12
2022/10/27 09:04:03;;;;;;;0.30;0.30;;;20.60;70.80;;;;;;4988322;28;20619;-13
2022/10/27 09:06:29;;;;;;;;;;;20.60;70.70;;;;;;4992071;28;20053;-12
2022/10/27 09:09:20;;;;;;;0.35;0.35;;;20.60;70.90;;;;;;4994659;28;19968;-12
2022/10/27 09:11:57;;;;;;;0.30;0.30;;;20.60;71.10;;;;;;5003416;28;20044;-12
2022/10/27 09:14:45;;;;;;;0.65;0.50;;;20.70;71.10;;;;;;5006417;28;20054;-12
2022/10/27 09:17:14;;;;;;;0.30;0.30;;;20.70;70.90;;;;;;5017450;28;20073;-12
2022/10/27 09:19:44;;;;;;;0.50;0.50;;;20.70;70.40;;;;;;4992093;28;20077;-14
2022/10/27 09:22:16;;;;;;;0.30;0.30;;;20.70;70.80;;;;;;5008202;28;20125;-12
2022/10/27 09:24:42;;;;;;;0.30;0.30;;;20.70;70.80;;;;;;4993799;28;20081;-13
2022/10/27 09:27:09;;;;;;;0.57;0.43;;;20.70;72.00;;;;;;5005516;28;20065;-12
2022/10/27 09:29:35;;;;;;;1.45;0.43;;;20.70;71.10;;;;;;5012777;28;20506;-12
2022/10/27 09:32:25;;;;;;;0.45;0.45;;;20.60;71.40;;;;;;5012461;28;20103;-13
2022/10/27 09:35:03;;;;;;;0.50;0.50;;;20.60;71.40;;;;;;5010694;28;20096;-12
2022/10/27 09:37:32;;;;;;;0.40;0.40;;;20.60;71.40;;;;;;5001527;28;20038;-12
2022/10/27 09:39:58;;;;;;;0.40;0.40;;;20.70;71.20;;;;;;5007987;28;20054;-12
2022/10/27 09:42:25;;;;;;;0.30;0.30;;;20.70;71.10;;;;;;4999730;28;20038;-13
2022/10/27 09:44:55;;;;;;;0.50;0.50;;;20.70;71.30;;;;;;4989412;28;20050;-12
2022/10/27 09:47:25;;;;;;;0.93;0.60;;;20.70;71.30;;;;;;4992094;28;20062;-15
2022/10/27 09:49:52;;;;;;;0.40;0.40;;;20.70;71.30;;;;;;4994012;28;20053;-12
2022/10/27 09:52:44;;;;;;;0.90;0.52;;;20.60;71.20;;;;;;4993503;28;20467;-12
2022/10/27 09:55:10;;;;;;;0.40;0.40;;;20.70;71.30;;;;;;5002952;28;20042;-12
2022/10/27 09:57:37;;;;;;;0.65;0.40;;;20.70;71.30;;;;;;5008040;28;20421;-13
2022/10/27 10:00:24;;;;;;;0.50;0.50;;;20.70;71.50;;;;;;5007753;28;20089;-12
2022/10/27 10:03:00;;;;;;;0.40;0.40;;;20.70;71.50;;;;;;5007808;28;20045;-12
2022/10/27 10:05:35;;;;;;;0.38;0.32;;;20.60;71.40;;;;;;5012957;28;20510;-15
2022/10/27 10:08:20;;;;;;;0.40;0.30;;;20.70;71.40;;;;;;5009694;28;20461;-15
2022/10/27 10:10:55;;;;;;;0.35;0.35;;;20.60;71.60;;;;;;5014831;28;20045;-13
2022/10/27 10:13:22;;;;;;;0.60;0.60;;;20.60;71.60;;;;;;5019905;28;20041;-12
2022/10/27 10:15:47;;;;;;;0.43;0.43;;;20.60;71.80;;;;;;5008581;28;20504;-12
2022/10/27 10:18:27;;;;;;;0.40;0.40;;;20.60;71.50;;;;;;5008108;28;20053;-13
2022/10/27 10:21:00;;;;;;;1.65;0.47;;;20.60;71.60;;;;;;5008692;28;20049;-23
2022/10/27 10:23:28;;;;;;;1.95;0.60;;;20.60;71.70;;;;;;5027137;28;20040;-13
2022/10/27 10:25:55;;;;;;;0.75;0.75;;;20.60;71.60;;;;;;5007050;28;20077;-13
2022/10/27 10:28:36;;;;;;;0.80;0.43;;;20.60;71.60;;;;;;4996213;28;20581;-13
2022/10/27 10:31:04;;;;;;;0.50;0.50;;;20.60;71.90;;;;;;4992557;28;20034;-13
2022/10/27 10:33:40;;;;;;;1.23;0.55;;;20.60;71.60;;;;;;4990319;28;20097;-13
2022/10/27 10:36:36;;;;;;;0.32;0.30;;;20.60;71.60;;;;;;5006015;28;20053;-13
2022/10/27 10:39:02;;;;;;;0.40;0.30;;;20.60;71.80;;;;;;5010045;28;20046;-12
2022/10/27 10:41:28;;;;;;;0.82;0.52;;;20.60;71.50;;;;;;5006249;28;20042;-12
2022/10/27 10:44:12;;;;;;;0.95;0.95;;;20.60;71.80;;;;;;5008052;28;20097;-12
2022/10/27 10:46:53;;;;;;;1.43;0.50;;;20.70;71.60;;;;;;5002096;28;20038;-12
2022/10/27 10:49:23;;;;;;;0.40;0.40;;;20.60;71.50;;;;;;4990710;28;20046;-13
2022/10/27 10:51:59;;;;;;;0.40;0.40;;;20.70;71.20;;;;;;5003393;28;20398;-12
2022/10/27 10:54:32;;;;;;;0.40;0.40;;;20.80;71.10;;;;;;4998129;28;20033;-12
2022/10/27 10:56:57;;;;;;;0.50;0.40;;;20.80;71.00;;;;;;4997280;28;20505;-12
2022/10/27 10:59:26;;;;;;;0.60;0.50;;;20.80;70.90;;;;;;5012583;28;20045;-13
2022/10/27 11:02:03;;;;;;;0.32;0.32;;;20.90;70.90;;;;;;5025714;28;20076;-13
2022/10/27 11:04:31;;;;;;;0.80;0.50;;;20.90;70.80;;;;;;5010191;28;20041;-13
2022/10/27 11:06:59;;;;;;;0.50;0.50;;;20.90;70.80;;;;;;5044933;28;20046;-12
2022/10/27 11:09:26;;;;;;;0.60;0.60;;;20.90;70.70;;;;;;5007659;28;20402;-15
2022/10/27 11:11:52;;;;;;;0.50;0.50;;;20.80;70.80;;;;;;5008943;28;20096;-12
2022/10/27 11:14:18;;;;;;;0.47;0.47;;;20.80;70.90;;;;;;5010475;28;20038;-12
2022/10/27 11:16:49;;;;;;;0.60;0.60;;;20.80;71.60;;;;;;5009016;28;20050;-15
2022/10/27 11:19:14;;;;;;;0.60;0.52;;;20.80;70.90;;;;;;5007057;28;20511;-12
2022/10/27 11:21:52;;;;;;;0.47;0.47;;;20.90;70.80;;;;;;5008485;28;20048;-12
2022/10/27 11:24:36;;;;;;;0.63;0.63;;;20.90;70.70;;;;;;5002364;28;20050;-12
2022/10/27 11:27:02;;;;;;;1.15;0.63;;;20.90;70.50;;;;;;5013982;28;20053;-12
2022/10/27 11:29:39;;;;;;;0.40;0.40;;;20.90;71.30;;;;;;5003302;28;20502;-12
2022/10/27 11:32:41;;;;;;;0.43;0.43;;;21.10;70.00;;;;;;4992693;28;20054;-12
2022/10/27 11:35:12;;;;;;;0.60;0.50;;;21.20;69.70;;;;;;5006344;28;20042;-13
2022/10/27 11:38:02;;;;;;;0.60;0.60;;;21.10;69.70;;;;;;5010563;28;20061;-12
2022/10/27 11:40:57;;;;;;;0.60;0.50;;;21.20;70.70;;;;;;4997716;28;20550;-12
2022/10/27 11:43:22;;;;;;;0.35;0.35;;;21.50;68.80;;;;;;5010961;28;20036;-13
2022/10/27 11:46:11;;;;;;;1.75;0.50;;;21.40;68.80;;;;;;5012585;28;20046;-13
2022/10/27 11:48:56;;;;;;;0.40;0.40;;;21.30;69.40;;;;;;5011759;28;20106;-12
2022/10/27 11:51:29;;;;;;;0.60;0.60;;;21.30;69.40;;;;;;5012920;28;20064;-12
2022/10/27 11:53:55;;;;;;;1.27;0.88;;;21.20;69.70;;;;;;5004750;28;20092;-20
2022/10/27 11:56:45;;;;;;;0.73;0.60;;;21.30;69.40;;;;;;5018714;28;20034;-13
2022/10/27 11:59:24;;;;;;;0.52;0.52;;;21.30;69.20;;;;;;4993205;28;20046;-12
2022/10/27 12:01:52;;;;;;;0.60;0.60;;;21.30;70.40;;;;;;4991365;28;20133;-14
2022/10/27 12:04:45;;;;;;;0.82;0.60;;;21.30;69.50;;;;;;5001131;28;20047;-12
2022/10/27 12:07:47;;;;;;;0.52;0.52;;;21.30;69.50;;;;;;5006833;28;20482;-18
2022/10/27 12:10:16;;;;;;;0.60;0.60;;;21.20;69.90;;;;;;5002507;28;20042;-13
2022/10/27 12:12:53;;;;;;;0.80;0.80;;;21.20;69.90;;;;;;5009573;28;20106;-14
2022/10/27 12:15:54;;;;;;;0.73;0.68;;;21.20;69.80;;;;;;5002166;28;20478;-12
2022/10/27 12:18:27;;;;;;;0.50;0.50;;;21.20;69.90;;;;;;4991076;28;20058;-12
2022/10/27 12:20:59;;;;;;;0.80;0.60;;;21.20;70.00;;;;;;5003866;28;20041;-13
2022/10/27 12:23:26;;;;;;;0.90;0.40;;;21.50;70.10;;;;;;5007743;28;20054;-12
2022/10/27 12:26:08;;;;;;;0.70;0.70;;;21.70;68.40;;;;;;4999528;28;20949;-13
2022/10/27 12:28:34;;;;;;;0.73;0.50;;;21.70;68.00;;;;;;4999150;28;20046;-18
2022/10/27 12:31:00;;;;;;;0.50;0.50;;;21.50;68.90;;;;;;4977164;28;20041;-12
2022/10/27 12:33:46;;;;;;;0.77;0.65;;;21.40;69.20;;;;;;5008442;28;20072;-18
2022/10/27 12:36:21;;;;;;;1.52;0.70;;;21.30;69.70;;;;;;5008667;28;20072;-13
2022/10/27 12:39:04;;;;;;;0.68;0.50;;;21.30;70.00;;;;;;5001343;28;20045;-18
2022/10/27 12:42:08;;;;;;;0.60;0.60;;;21.20;70.00;;;;;;5004355;28;20042;-22
2022/10/27 12:44:58;;;;;;;1.13;0.65;;;21.20;70.00;;;;;;5029802;28;20075;-17
2022/10/27 12:47:51;;;;;;;1.92;0.70;;;21.20;70.00;;;;;;5028849;28;20080;-17
2022/10/27 12:50:23;;;;;;;0.60;0.60;;;21.30;70.10;;;;;;5032301;28;20042;-20
2022/10/27 12:53:18;;;;;;;0.45;0.45;;;21.30;69.80;;;;;;5020022;28;20529;-17
2022/10/27 12:56:04;;;;;;;1.35;0.50;;;21.30;70.00;;;;;;4931648;28;20043;-17
2022/10/27 12:58:44;;;;;;;0.50;0.50;;;21.20;70.10;;;;;;4957024;28;20062;-18
2022/10/27 13:01:34;;;;;;;0.90;0.50;;;21.20;70.20;;;;;;4961196;28;20126;-17